Time;durP1;ratioP1;P1;durP2;ratioP2;P2;SDS_P1;SDS_P2;PMS_P1;PMS_P2;Temp;Humidity;BMP_temperature;BMP_pressure;BME280_temperature;BME280_humidity;BME280_pressure;Samples;Min_cycle;Max_cycle;Signal;HPM_P1;HPM_P2
2022/06/26 00:01:32;;;;;;;14.40;2.00;;;12.70;99.90;;;;;;4972062;28;20710;-63
2022/06/26 00:03:58;;;;;;;12.47;2.00;;;12.70;99.90;;;;;;4972098;28;20571;-64
2022/06/26 00:06:24;;;;;;;8.40;1.90;;;12.70;99.90;;;;;;4971546;28;20215;-64
2022/06/26 00:08:50;;;;;;;12.20;1.87;;;12.60;99.90;;;;;;4971333;28;20262;-64
2022/06/26 00:11:16;;;;;;;8.17;1.80;;;12.50;99.90;;;;;;4971047;28;20180;-63
2022/06/26 00:13:42;;;;;;;11.87;2.00;;;12.60;99.90;;;;;;4971768;28;20180;-63
2022/06/26 00:16:08;;;;;;;9.60;1.77;;;12.60;99.90;;;;;;4971935;28;20761;-63
2022/06/26 00:18:33;;;;;;;16.83;2.10;;;12.60;99.90;;;;;;4971642;28;20299;-63
2022/06/26 00:20:59;;;;;;;12.17;2.40;;;12.50;99.90;;;;;;4972022;28;20210;-63
2022/06/26 00:23:25;;;;;;;13.67;2.03;;;12.70;99.90;;;;;;4971631;28;20314;-63
2022/06/26 00:25:50;;;;;;;17.50;2.43;;;12.80;99.90;;;;;;4970105;28;20230;-63
2022/06/26 00:28:16;;;;;;;11.00;2.13;;;12.90;99.90;;;;;;4967292;28;20185;-64
2022/06/26 00:30:42;;;;;;;7.87;2.17;;;12.80;99.90;;;;;;4971261;28;20188;-64
2022/06/26 00:33:07;;;;;;;9.97;2.40;;;13.00;99.90;;;;;;4971589;28;20238;-64
2022/06/26 00:35:33;;;;;;;14.27;2.87;;;12.80;99.90;;;;;;4971680;28;20662;-64
2022/06/26 00:37:59;;;;;;;13.30;2.17;;;12.80;99.90;;;;;;4970925;28;20697;-64
2022/06/26 00:40:25;;;;;;;12.57;2.37;;;12.70;99.90;;;;;;4974420;28;20221;-64
2022/06/26 00:42:50;;;;;;;11.90;2.40;;;12.80;99.90;;;;;;4953927;28;20591;-64
2022/06/26 00:45:16;;;;;;;13.67;2.07;;;12.80;99.90;;;;;;4975147;28;20184;-64
2022/06/26 00:47:42;;;;;;;12.03;1.83;;;13.10;99.90;;;;;;4975659;28;20200;-64
2022/06/26 00:50:08;;;;;;;14.07;2.20;;;12.90;99.90;;;;;;4975297;28;20190;-64
2022/06/26 00:52:35;;;;;;;9.97;2.10;;;12.80;99.90;;;;;;4975292;28;20206;-64
2022/06/26 00:55:02;;;;;;;9.50;1.67;;;12.80;99.90;;;;;;4975299;28;20171;-64
2022/06/26 00:57:28;;;;;;;15.00;2.23;;;12.80;99.90;;;;;;4975249;28;20650;-64
2022/06/26 00:59:56;;;;;;;8.30;1.10;;;12.80;99.90;;;;;;4974763;28;20212;-64
2022/06/26 01:02:23;;;;;;;9.33;2.10;;;12.80;99.90;;;;;;4975043;28;20259;-64
2022/06/26 01:04:49;;;;;;;9.93;1.70;;;12.60;99.90;;;;;;4975026;28;20267;-63
2022/06/26 01:07:15;;;;;;;11.30;1.77;;;12.90;99.90;;;;;;4975175;28;20262;-63
2022/06/26 01:09:41;;;;;;;19.20;1.50;;;;;;;;;;4974992;28;20183;-62
2022/06/26 01:12:08;;;;;;;9.53;1.77;;;12.80;99.90;;;;;;4974708;28;20180;-65
2022/06/26 01:14:34;;;;;;;11.97;1.63;;;12.80;99.90;;;;;;4974537;28;20199;-64
2022/06/26 01:16:59;;;;;;;17.33;2.13;;;12.80;99.90;;;;;;4974872;28;20183;-64
2022/06/26 01:19:25;;;;;;;10.80;1.40;;;12.00;99.90;;;;;;4974686;28;20226;-64
2022/06/26 01:21:51;;;;;;;6.07;1.20;;;12.60;99.90;;;;;;4975043;28;20184;-64
2022/06/26 01:24:17;;;;;;;9.37;1.60;;;12.80;99.90;;;;;;4974956;28;20176;-64
2022/06/26 01:26:42;;;;;;;7.90;1.37;;;12.70;99.90;;;;;;4974958;28;20255;-64
2022/06/26 01:29:08;;;;;;;11.97;1.60;;;12.90;99.90;;;;;;4974837;28;20172;-64
2022/06/26 01:31:34;;;;;;;14.07;1.97;;;12.90;99.90;;;;;;4974469;28;20207;-64
2022/06/26 01:34:05;;;;;;;10.13;1.67;;;12.90;99.90;;;;;;4974250;28;20180;-64
2022/06/26 01:36:31;;;;;;;14.60;2.97;;;12.90;99.90;;;;;;4974830;28;20179;-65
2022/06/26 01:38:56;;;;;;;10.80;1.70;;;12.90;99.90;;;;;;4974146;28;20216;-63
2022/06/26 01:41:22;;;;;;;9.73;1.60;;;12.90;99.90;;;;;;4974133;28;20279;-64
2022/06/26 01:43:48;;;;;;;16.50;1.70;;;13.00;99.90;;;;;;4973790;28;20175;-64
2022/06/26 01:46:14;;;;;;;9.07;1.73;;;12.90;99.90;;;;;;4974043;28;20233;-63
2022/06/26 01:48:40;;;;;;;15.60;1.93;;;13.10;99.90;;;;;;4973983;28;20188;-63
2022/06/26 01:51:06;;;;;;;18.67;2.37;;;13.10;99.90;;;;;;4973718;28;20191;-64
2022/06/26 01:53:34;;;;;;;7.70;1.13;;;13.00;99.90;;;;;;4974083;28;20176;-64
2022/06/26 01:55:59;;;;;;;13.33;1.40;;;13.10;99.90;;;;;;4974437;28;20171;-63
2022/06/26 01:58:25;;;;;;;14.17;1.87;;;13.20;99.90;;;;;;4974119;28;20579;-64
2022/06/26 02:00:53;;;;;;;19.97;2.07;;;13.20;99.90;;;;;;4973490;28;20207;-64
2022/06/26 02:03:20;;;;;;;10.00;1.63;;;13.20;99.90;;;;;;4954724;28;20596;-64
2022/06/26 02:05:46;;;;;;;13.63;1.97;;;;;;;;;;4954440;28;20306;-66
2022/06/26 02:08:12;;;;;;;15.13;2.33;;;13.20;99.90;;;;;;4974353;28;20240;-61
2022/06/26 02:13:36;;;;;;;12.87;1.87;;;13.20;99.90;;;;;;4973646;28;20171;-65
2022/06/26 02:16:28;;;;;;;12.77;1.60;;;13.10;99.90;;;;;;4974012;28;20180;-62
2022/06/26 02:18:56;;;;;;;11.97;2.10;;;13.10;99.90;;;;;;4973584;28;20310;-62
2022/06/26 02:21:24;;;;;;;13.23;1.87;;;13.10;99.90;;;;;;4973397;28;20242;-62
2022/06/26 02:23:51;;;;;;;12.40;1.83;;;13.10;99.90;;;;;;4973615;28;20228;-62
2022/06/26 02:26:18;;;;;;;18.23;2.20;;;13.10;99.90;;;;;;4973623;28;20176;-62
2022/06/26 02:28:45;;;;;;;13.13;1.50;;;13.10;99.90;;;;;;4972609;28;20176;-62
2022/06/26 02:31:11;;;;;;;16.57;1.70;;;13.00;99.90;;;;;;4973025;28;20191;-61
2022/06/26 02:33:38;;;;;;;7.20;1.93;;;13.10;99.90;;;;;;4973073;28;20647;-61
2022/06/26 02:36:05;;;;;;;9.77;1.70;;;13.10;99.90;;;;;;4972941;28;20263;-61
2022/06/26 02:38:31;;;;;;;17.33;1.70;;;13.10;99.90;;;;;;4973008;28;20354;-61
2022/06/26 02:40:57;;;;;;;13.80;2.00;;;13.00;99.90;;;;;;4973374;28;20183;-61
2022/06/26 02:43:23;;;;;;;17.87;2.30;;;;;;;;;;4969020;28;20639;-62
2022/06/26 02:45:50;;;;;;;10.93;1.67;;;12.90;99.90;;;;;;4972539;28;20650;-64
2022/06/26 02:48:16;;;;;;;12.10;1.43;;;13.10;99.90;;;;;;4972150;28;20168;-61
2022/06/26 02:50:42;;;;;;;15.90;2.00;;;13.00;99.90;;;;;;4973016;28;20582;-61
2022/06/26 02:53:08;;;;;;;9.77;1.53;;;13.10;99.90;;;;;;4973003;28;20176;-61
2022/06/26 02:55:33;;;;;;;13.57;1.70;;;13.00;99.90;;;;;;4972573;28;20180;-61
2022/06/26 02:57:59;;;;;;;9.90;2.13;;;13.00;99.90;;;;;;4973179;28;20234;-62
2022/06/26 03:00:25;;;;;;;12.63;2.07;;;13.00;99.90;;;;;;4972789;28;20212;-62
2022/06/26 03:02:51;;;;;;;8.30;1.47;;;13.10;99.90;;;;;;4972365;28;20175;-61
2022/06/26 03:05:17;;;;;;;13.53;2.27;;;13.10;99.90;;;;;;4972263;28;20182;-62
2022/06/26 03:07:43;;;;;;;15.77;2.07;;;13.00;99.90;;;;;;4973222;28;20180;-62
2022/06/26 03:10:09;;;;;;;13.43;2.03;;;13.10;99.90;;;;;;4972209;28;20172;-61
2022/06/26 03:12:47;;;;;;;17.23;1.97;;;13.20;99.90;;;;;;4972173;28;20180;-62
2022/06/26 03:15:14;;;;;;;17.07;1.90;;;13.10;99.90;;;;;;4972447;28;20274;-61
2022/06/26 03:17:40;;;;;;;11.37;1.90;;;13.10;99.90;;;;;;4972113;28;20184;-61
2022/06/26 03:20:11;;;;;;;9.83;1.70;;;13.20;99.90;;;;;;4972271;28;20273;-62
2022/06/26 03:22:38;;;;;;;7.27;1.67;;;13.40;99.90;;;;;;4972494;28;20180;-63
2022/06/26 03:25:06;;;;;;;14.97;2.10;;;13.20;99.90;;;;;;4972453;28;20176;-63
2022/06/26 03:27:32;;;;;;;15.67;2.00;;;13.20;99.90;;;;;;4972278;28;20172;-62
2022/06/26 03:29:58;;;;;;;10.00;1.77;;;13.20;99.90;;;;;;4972244;28;20639;-62
2022/06/26 03:32:24;;;;;;;11.90;2.10;;;13.20;99.90;;;;;;4972786;28;20182;-62
2022/06/26 03:34:49;;;;;;;12.73;1.60;;;12.90;99.90;;;;;;4971671;28;20606;-63
2022/06/26 03:37:15;;;;;;;15.47;2.03;;;13.10;99.90;;;;;;4972052;28;20180;-63
2022/06/26 03:39:41;;;;;;;13.43;1.70;;;13.10;99.90;;;;;;4972285;28;20674;-62
2022/06/26 03:42:07;;;;;;;11.10;1.73;;;13.00;99.90;;;;;;4972063;28;20184;-62
2022/06/26 03:44:32;;;;;;;13.00;1.93;;;13.10;99.90;;;;;;4965350;28;20515;-61
2022/06/26 03:46:58;;;;;;;11.10;2.20;;;12.80;99.90;;;;;;4971591;28;20263;-62
2022/06/26 03:49:25;;;;;;;10.80;1.87;;;13.00;99.90;;;;;;4972127;28;20516;-62
2022/06/26 03:51:51;;;;;;;11.20;1.83;;;12.90;99.90;;;;;;4972352;28;20222;-62
2022/06/26 03:54:17;;;;;;;18.13;2.57;;;13.00;99.90;;;;;;4972147;28;20655;-62
2022/06/26 03:56:42;;;;;;;16.07;2.47;;;12.90;99.90;;;;;;4972230;28;20229;-63
2022/06/26 03:59:08;;;;;;;11.93;1.87;;;13.00;99.90;;;;;;4971817;28;20255;-63
2022/06/26 04:01:34;;;;;;;13.03;1.83;;;13.00;99.90;;;;;;4969850;28;20639;-62
2022/06/26 04:04:00;;;;;;;13.70;1.77;;;13.10;99.90;;;;;;4960876;28;20173;-62
2022/06/26 04:06:26;;;;;;;15.83;1.97;;;13.00;99.90;;;;;;4968341;28;20231;-62
2022/06/26 04:08:52;;;;;;;12.40;1.60;;;13.10;99.90;;;;;;4971923;28;20180;-62
2022/06/26 04:11:18;;;;;;;14.40;1.77;;;13.10;99.90;;;;;;4972051;28;20168;-62
2022/06/26 04:13:43;;;;;;;17.73;1.67;;;13.20;99.90;;;;;;4971591;28;20184;-63
2022/06/26 04:16:09;;;;;;;8.33;1.70;;;13.20;99.90;;;;;;4971811;28;20636;-62
2022/06/26 04:18:35;;;;;;;11.17;1.50;;;13.10;99.90;;;;;;4971414;28;20207;-62
2022/06/26 04:21:01;;;;;;;11.40;1.83;;;13.20;99.90;;;;;;4971957;28;20180;-63
2022/06/26 04:23:27;;;;;;;10.17;2.50;;;13.20;99.90;;;;;;4971129;28;20184;-62
2022/06/26 04:25:53;;;;;;;14.40;1.53;;;13.30;99.90;;;;;;4971087;28;20192;-62
2022/06/26 04:28:19;;;;;;;13.33;1.43;;;13.30;99.90;;;;;;4971113;28;20271;-62
2022/06/26 04:30:45;;;;;;;16.53;1.93;;;13.30;99.90;;;;;;4971199;28;20259;-65
2022/06/26 04:33:11;;;;;;;13.67;1.57;;;13.40;99.90;;;;;;4971451;28;20273;-64
2022/06/26 04:35:36;;;;;;;21.23;2.43;;;13.30;99.90;;;;;;4971474;28;20180;-64
2022/06/26 04:38:03;;;;;;;22.10;2.47;;;13.30;99.90;;;;;;4971073;28;20186;-64
2022/06/26 04:40:29;;;;;;;13.27;1.77;;;13.20;99.90;;;;;;4971190;28;20223;-64
2022/06/26 04:42:55;;;;;;;14.57;1.53;;;13.20;99.90;;;;;;4971369;28;20639;-64
2022/06/26 04:45:22;;;;;;;8.77;1.40;;;13.30;99.90;;;;;;4971757;28;20203;-64
2022/06/26 04:47:49;;;;;;;12.50;2.20;;;13.40;99.90;;;;;;4971584;28;20208;-63
2022/06/26 04:50:15;;;;;;;11.43;1.90;;;13.40;99.90;;;;;;4971895;28;20179;-64
2022/06/26 04:52:44;;;;;;;11.07;1.37;;;13.40;99.90;;;;;;4971479;28;20187;-64
2022/06/26 04:55:10;;;;;;;13.73;1.83;;;13.40;99.90;;;;;;4971648;28;20274;-63
2022/06/26 04:57:36;;;;;;;5.13;1.03;;;13.40;99.90;;;;;;4971490;28;20286;-63
2022/06/26 05:00:03;;;;;;;8.23;1.17;;;13.50;99.90;;;;;;4971347;28;20271;-64
2022/06/26 05:02:29;;;;;;;8.40;1.60;;;13.00;99.90;;;;;;4971256;28;20204;-62
2022/06/26 05:04:55;;;;;;;10.17;1.53;;;13.70;99.90;;;;;;4971399;28;20266;-62
2022/06/26 05:07:20;;;;;;;10.93;1.60;;;13.50;99.90;;;;;;4970758;28;20250;-62
2022/06/26 05:09:46;;;;;;;8.03;1.27;;;13.40;99.90;;;;;;4971486;28;20235;-62
2022/06/26 05:12:12;;;;;;;13.03;1.93;;;;;;;;;;4971529;28;20179;-62
2022/06/26 05:14:38;;;;;;;10.23;1.80;;;13.50;99.90;;;;;;4971587;28;20172;-62
2022/06/26 05:17:04;;;;;;;12.43;1.57;;;13.40;99.90;;;;;;4971516;28;20651;-62
2022/06/26 05:19:30;;;;;;;10.40;1.63;;;13.50;99.90;;;;;;4970456;28;20262;-63
2022/06/26 05:21:56;;;;;;;13.57;1.87;;;13.50;99.90;;;;;;4971415;28;20176;-62
2022/06/26 05:24:22;;;;;;;16.80;1.43;;;13.50;99.90;;;;;;4971546;28;20186;-62
2022/06/26 05:26:48;;;;;;;7.60;1.17;;;13.50;99.90;;;;;;4973292;28;20263;-62
2022/06/26 05:29:13;;;;;;;12.93;1.63;;;11.70;99.90;;;;;;4973613;28;20180;-62
2022/06/26 05:31:39;;;;;;;15.63;2.17;;;13.50;99.90;;;;;;4974146;28;20543;-63
2022/06/26 05:34:05;;;;;;;8.73;1.53;;;13.60;99.90;;;;;;4974596;28;20187;-62
2022/06/26 05:36:31;;;;;;;12.00;2.23;;;13.60;99.90;;;;;;4974823;28;20511;-62
2022/06/26 05:38:56;;;;;;;13.97;1.83;;;13.60;99.90;;;;;;4974686;28;20294;-62
2022/06/26 05:41:22;;;;;;;15.30;1.97;;;13.70;99.90;;;;;;4957241;28;20180;-63
2022/06/26 05:43:48;;;;;;;4.83;0.90;;;13.80;99.90;;;;;;4974118;28;20690;-62
2022/06/26 05:46:14;;;;;;;18.30;1.98;;;13.80;99.90;;;;;;4974397;28;20643;-63
2022/06/26 05:48:39;;;;;;;14.55;2.03;;;13.90;99.90;;;;;;4974600;28;20172;-62
2022/06/26 05:51:05;;;;;;;10.90;1.70;;;14.00;99.90;;;;;;4974302;28;20210;-64
2022/06/26 05:53:31;;;;;;;11.67;1.73;;;14.10;99.90;;;;;;4974461;28;20700;-63
2022/06/26 05:55:56;;;;;;;12.82;2.05;;;13.90;99.90;;;;;;4973966;28;20190;-64
2022/06/26 05:58:22;;;;;;;6.80;1.55;;;14.10;99.90;;;;;;4974382;28;20172;-63
2022/06/26 06:00:48;;;;;;;10.03;2.00;;;14.20;99.90;;;;;;4974040;28;20267;-63
2022/06/26 06:03:14;;;;;;;13.97;2.10;;;14.20;99.90;;;;;;4973808;28;20528;-63
2022/06/26 06:05:39;;;;;;;14.52;2.05;;;14.30;99.90;;;;;;4973990;28;20825;-63
2022/06/26 06:08:05;;;;;;;8.23;1.63;;;14.40;99.90;;;;;;4973725;28;20223;-63
2022/06/26 06:10:31;;;;;;;9.00;1.27;;;14.40;99.90;;;;;;4974137;28;20258;-63
2022/06/26 06:12:57;;;;;;;9.00;1.37;;;14.20;99.90;;;;;;4973937;28;20227;-62
2022/06/26 06:15:24;;;;;;;8.98;1.17;;;14.40;99.90;;;;;;4973905;28;20187;-65
2022/06/26 06:17:50;;;;;;;15.63;2.30;;;14.30;99.90;;;;;;4974012;28;20170;-65
2022/06/26 06:20:19;;;;;;;9.63;1.70;;;14.50;99.90;;;;;;4973160;28;20921;-65
2022/06/26 06:22:59;;;;;;;13.77;1.93;;;14.40;99.90;;;;;;4973739;28;20180;-66
2022/06/26 06:25:25;;;;;;;11.50;1.58;;;14.40;99.90;;;;;;4954675;29;20180;-66
2022/06/26 06:27:51;;;;;;;8.37;1.40;;;14.20;99.90;;;;;;4954200;29;20169;-66
2022/06/26 06:30:18;;;;;;;10.20;1.52;;;14.40;99.90;;;;;;4954177;28;20176;-68
2022/06/26 06:32:45;;;;;;;8.32;1.67;;;14.40;99.90;;;;;;4954409;28;20173;-66
2022/06/26 06:35:13;;;;;;;9.57;1.50;;;14.50;99.90;;;;;;4970153;28;20180;-66
2022/06/26 06:37:43;;;;;;;10.35;1.80;;;14.40;99.90;;;;;;4972383;28;20187;-66
2022/06/26 06:40:10;;;;;;;10.82;1.40;;;14.60;99.90;;;;;;4972664;28;20215;-66
2022/06/26 06:42:36;;;;;;;7.97;1.20;;;14.70;99.90;;;;;;4973182;28;20184;-68
2022/06/26 06:45:03;;;;;;;12.63;2.22;;;14.70;99.90;;;;;;4973322;28;20211;-67
2022/06/26 06:47:29;;;;;;;12.05;1.80;;;14.80;99.90;;;;;;4972995;28;20184;-65
2022/06/26 06:49:54;;;;;;;14.35;1.80;;;14.90;99.90;;;;;;4973287;28;20802;-66
2022/06/26 06:52:21;;;;;;;11.25;1.30;;;15.00;99.90;;;;;;4973497;28;20250;-65
2022/06/26 06:54:46;;;;;;;13.48;2.63;;;14.80;99.90;;;;;;4973144;28;20172;-66
2022/06/26 06:57:12;;;;;;;12.45;1.75;;;14.70;99.90;;;;;;4972245;28;20176;-64
2022/06/26 06:59:38;;;;;;;14.68;2.25;;;14.70;99.90;;;;;;4968429;28;20637;-66
2022/06/26 07:02:04;;;;;;;15.52;2.28;;;14.60;99.90;;;;;;4960602;28;20180;-65
2022/06/26 07:04:30;;;;;;;7.33;1.50;;;14.30;99.90;;;;;;4955920;28;20179;-66
2022/06/26 07:06:55;;;;;;;15.00;1.67;;;14.50;99.90;;;;;;4972563;28;20224;-66
2022/06/26 07:09:21;;;;;;;9.77;1.50;;;14.70;99.90;;;;;;4972565;28;20287;-66
2022/06/26 07:11:48;;;;;;;19.33;2.28;;;14.70;99.90;;;;;;4973293;28;20176;-66
2022/06/26 07:14:13;;;;;;;7.50;1.90;;;14.70;99.90;;;;;;4972439;28;20191;-66
2022/06/26 07:16:39;;;;;;;16.38;2.05;;;15.00;99.90;;;;;;4972835;28;20190;-66
2022/06/26 07:19:05;;;;;;;14.93;2.53;;;14.90;99.90;;;;;;4967081;28;20612;-64
2022/06/26 07:21:31;;;;;;;9.43;2.00;;;15.30;99.90;;;;;;4953599;28;20236;-65
2022/06/26 07:23:57;;;;;;;11.48;1.88;;;15.30;99.90;;;;;;4953655;28;20180;-65
2022/06/26 07:26:23;;;;;;;11.32;1.40;;;15.20;99.90;;;;;;4953236;29;20183;-66
2022/06/26 07:28:49;;;;;;;10.63;1.75;;;15.30;99.90;;;;;;4964062;28;20701;-64
2022/06/26 07:31:15;;;;;;;16.88;1.55;;;14.90;99.90;;;;;;4972759;28;20180;-66
2022/06/26 07:34:23;;;;;;;15.07;2.30;;;15.00;99.90;;;;;;4972639;28;20164;-65
2022/06/26 07:36:29;;;;;;;18.90;1.90;;;15.00;99.90;;;;;;4958813;28;20545;-62
2022/06/26 07:38:55;;;;;;;18.00;2.10;;;15.00;99.90;;;;;;4972277;28;20274;-62
2022/06/26 07:41:21;;;;;;;16.58;2.08;;;15.20;99.90;;;;;;4972579;28;20168;-62
2022/06/26 07:43:47;;;;;;;15.88;2.17;;;15.50;99.90;;;;;;4972262;28;20635;-63
2022/06/26 07:46:13;;;;;;;15.15;1.83;;;15.50;99.90;;;;;;4971875;28;20607;-62
2022/06/26 07:48:39;;;;;;;16.75;2.20;;;15.70;99.90;;;;;;4971966;28;20176;-62
2022/06/26 07:51:04;;;;;;;22.23;2.20;;;15.80;99.90;;;;;;4971981;28;20172;-62
2022/06/26 07:53:30;;;;;;;13.05;2.10;;;15.70;99.90;;;;;;4971632;28;20248;-66
2022/06/26 07:55:56;;;;;;;11.82;1.73;;;15.70;99.90;;;;;;4972122;28;20180;-62
2022/06/26 07:58:22;;;;;;;20.45;2.70;;;16.20;99.90;;;;;;4972139;28;20184;-61
2022/06/26 08:00:48;;;;;;;18.52;2.45;;;15.80;99.90;;;;;;4972198;28;20176;-61
2022/06/26 08:03:16;;;;;;;16.70;2.22;;;16.00;99.90;;;;;;4972144;28;20662;-61
2022/06/26 08:05:43;;;;;;;23.17;2.58;;;15.80;99.90;;;;;;4971730;28;20180;-61
2022/06/26 08:08:09;;;;;;;7.65;1.30;;;15.60;99.90;;;;;;4970198;28;20278;-62
2022/06/26 08:10:36;;;;;;;11.70;1.85;;;15.60;99.90;;;;;;4971825;28;20172;-62
2022/06/26 08:13:03;;;;;;;10.68;2.00;;;15.60;99.90;;;;;;4971317;28;20200;-62
2022/06/26 08:15:28;;;;;;;19.30;2.53;;;15.70;99.90;;;;;;4971693;28;20172;-62
2022/06/26 08:17:54;;;;;;;18.33;1.80;;;15.60;99.90;;;;;;4986924;28;20211;-61
2022/06/26 08:20:20;;;;;;;13.60;2.47;;;15.60;99.90;;;;;;4970947;28;20299;-62
2022/06/26 08:22:46;;;;;;;9.48;1.90;;;15.40;99.90;;;;;;4971674;28;20180;-62
2022/06/26 08:25:12;;;;;;;11.07;2.30;;;15.50;99.90;;;;;;4971824;28;20182;-62
2022/06/26 08:27:38;;;;;;;7.30;1.58;;;15.50;99.90;;;;;;4971255;28;20569;-62
2022/06/26 08:30:05;;;;;;;12.35;1.52;;;15.40;99.90;;;;;;4972007;28;20631;-62
2022/06/26 08:32:32;;;;;;;7.45;1.63;;;15.20;99.90;;;;;;4971720;28;20171;-61
2022/06/26 08:34:58;;;;;;;6.63;1.35;;;15.30;99.90;;;;;;4971556;28;20180;-62
2022/06/26 08:37:24;;;;;;;16.13;2.28;;;15.50;99.90;;;;;;4971716;28;20259;-68
2022/06/26 08:39:49;;;;;;;10.43;1.90;;;15.90;99.90;;;;;;4970351;28;20951;-67
2022/06/26 08:42:15;;;;;;;6.53;1.70;;;15.80;99.90;;;;;;4971349;28;20730;-67
2022/06/26 08:44:44;;;;;;;13.60;2.40;;;16.00;99.90;;;;;;4971242;28;20638;-68
2022/06/26 08:47:11;;;;;;;12.27;2.45;;;16.70;99.90;;;;;;4971780;28;20164;-67
2022/06/26 08:49:39;;;;;;;10.68;2.50;;;16.80;99.90;;;;;;4955409;28;20184;-67
2022/06/26 08:52:04;;;;;;;13.68;2.40;;;17.00;99.90;;;;;;4970416;28;20216;-70
2022/06/26 08:54:32;;;;;;;14.65;2.13;;;17.40;99.90;;;;;;4971075;28;20176;-61
2022/06/26 08:56:58;;;;;;;17.60;2.40;;;17.40;99.90;;;;;;4971642;28;20176;-67
2022/06/26 08:59:26;;;;;;;9.57;2.25;;;17.50;99.90;;;;;;4971476;28;20691;-69
2022/06/26 09:01:52;;;;;;;15.82;2.42;;;17.70;99.90;;;;;;4974720;28;20268;-68
2022/06/26 09:04:18;;;;;;;8.73;1.73;;;17.50;99.90;;;;;;4975268;28;20196;-65
2022/06/26 09:06:45;;;;;;;18.83;2.85;;;17.50;99.90;;;;;;4975118;28;20222;-64
2022/06/26 09:09:13;;;;;;;15.68;2.47;;;17.70;99.90;;;;;;4975331;28;20187;-64
2022/06/26 09:11:40;;;;;;;13.60;2.58;;;17.90;99.90;;;;;;4974696;28;20227;-65
2022/06/26 09:14:06;;;;;;;22.27;2.60;;;17.80;99.90;;;;;;4975194;28;20191;-64
2022/06/26 09:16:32;;;;;;;10.55;1.95;;;17.70;99.90;;;;;;4975561;28;20623;-63
2022/06/26 09:19:19;;;;;;;11.32;1.90;;;17.30;99.90;;;;;;4958553;28;20206;-63
2022/06/26 09:21:46;;;;;;;13.60;2.05;;;17.20;99.90;;;;;;4974974;28;20190;-64
2022/06/26 09:24:22;;;;;;;10.45;1.90;;;16.40;99.90;;;;;;4974930;28;20188;-64
2022/06/26 09:27:15;;;;;;;20.20;2.13;;;15.80;99.90;;;;;;4974975;28;20222;-64
2022/06/26 09:29:47;;;;;;;19.13;2.33;;;15.60;99.90;;;;;;4974528;28;20176;-64
2022/06/26 09:32:15;;;;;;;10.65;2.35;;;15.50;99.90;;;;;;4974546;28;20176;-64
2022/06/26 09:34:50;;;;;;;19.92;2.63;;;15.50;99.90;;;;;;4974646;28;20175;-64
2022/06/26 09:37:18;;;;;;;16.00;2.08;;;15.60;99.90;;;;;;4974265;28;20175;-64
2022/06/26 09:39:44;;;;;;;13.15;2.15;;;15.70;99.90;;;;;;4974259;28;20204;-64
2022/06/26 09:42:22;;;;;;;13.18;1.95;;;16.10;99.90;;;;;;4974676;28;20227;-66
2022/06/26 09:44:52;;;;;;;14.43;2.00;;;16.60;99.90;;;;;;4972318;28;20293;-65
2022/06/26 09:47:30;;;;;;;9.40;1.92;;;16.90;99.90;;;;;;4963558;28;20592;-65
2022/06/26 09:49:58;;;;;;;11.40;2.17;;;17.20;99.90;;;;;;4974259;28;20259;-64
2022/06/26 09:52:26;;;;;;;15.93;1.73;;;17.30;99.90;;;;;;4974723;28;20192;-65
2022/06/26 09:54:53;;;;;;;4.80;1.10;;;18.30;99.90;;;;;;4973889;28;20187;-64
2022/06/26 09:57:19;;;;;;;7.60;1.48;;;17.10;99.90;;;;;;4973884;28;20528;-63
2022/06/26 09:59:46;;;;;;;20.30;2.20;;;16.90;99.90;;;;;;4973684;28;20215;-64
2022/06/26 10:07:52;;;;;;;12.82;1.98;;;16.90;99.90;;;;;;4963094;28;20606;-65
2022/06/26 10:10:21;;;;;;;12.13;1.60;;;16.80;99.90;;;;;;4973689;28;20675;-64
2022/06/26 10:13:00;;;;;;;14.45;2.05;;;16.70;99.90;;;;;;4972564;28;20203;-64
2022/06/26 10:15:32;;;;;;;12.15;1.73;;;16.50;99.90;;;;;;4973100;28;20203;-65
2022/06/26 10:18:11;;;;;;;8.20;1.92;;;16.20;99.90;;;;;;4973617;28;20176;-64
2022/06/26 10:20:39;;;;;;;18.00;1.83;;;16.10;99.90;;;;;;4973958;28;20817;-62
2022/06/26 10:23:05;;;;;;;12.45;1.88;;;16.10;99.90;;;;;;4973654;28;20199;-61
2022/06/26 10:25:31;;;;;;;8.38;1.63;;;15.90;99.90;;;;;;4973845;28;20654;-64
2022/06/26 10:27:58;;;;;;;14.30;2.08;;;15.60;99.90;;;;;;4973628;28;20250;-61
2022/06/26 10:30:29;;;;;;;11.15;2.03;;;15.70;99.90;;;;;;4971436;28;20202;-62
2022/06/26 10:33:09;;;;;;;11.75;2.00;;;16.10;99.90;;;;;;4971943;28;20207;-63
2022/06/26 10:35:40;;;;;;;15.00;2.25;;;16.20;99.90;;;;;;4972782;28;20665;-62
2022/06/26 10:38:25;;;;;;;18.75;2.80;;;16.30;99.90;;;;;;4971698;28;20184;-62
2022/06/26 10:44:02;;;;;;;18.15;1.85;;;16.60;99.90;;;;;;4954745;29;20184;-62
2022/06/26 10:46:39;;;;;;;11.30;1.70;;;16.50;99.90;;;;;;4969439;28;20179;-66
2022/06/26 10:49:10;;;;;;;13.35;1.92;;;16.40;99.90;;;;;;4972441;28;20187;-62
2022/06/26 10:51:40;;;;;;;11.68;1.92;;;16.00;99.90;;;;;;4973171;28;20168;-62
2022/06/26 10:54:20;;;;;;;11.55;1.60;;;15.90;99.90;;;;;;4973117;28;20272;-62
2022/06/26 10:56:46;;;;;;;14.13;2.38;;;15.60;99.90;;;;;;4972197;28;20175;-62
2022/06/26 10:59:17;;;;;;;19.98;2.42;;;15.80;99.90;;;;;;4972616;28;20219;-62
2022/06/26 11:01:43;;;;;;;15.43;1.98;;;15.70;99.90;;;;;;4973550;28;20176;-62
2022/06/26 11:04:09;;;;;;;21.80;2.10;;;15.50;99.90;;;;;;4972484;28;20183;-62
2022/06/26 11:06:40;;;;;;;12.80;2.38;;;15.50;99.90;;;;;;4972637;28;20207;-63
2022/06/26 11:09:08;;;;;;;13.63;2.10;;;15.60;99.90;;;;;;4972845;28;20171;-62
2022/06/26 11:11:34;;;;;;;14.65;1.85;;;15.60;99.90;;;;;;4972831;28;20172;-62
2022/06/26 11:14:01;;;;;;;9.55;1.65;;;15.60;99.90;;;;;;4972270;28;20274;-62
2022/06/26 11:16:38;;;;;;;6.88;1.55;;;15.30;99.90;;;;;;4972458;28;20176;-62
2022/06/26 11:19:06;;;;;;;8.80;1.13;;;15.70;99.90;;;;;;4972112;28;20238;-62
2022/06/26 11:21:32;;;;;;;10.77;1.65;;;15.60;99.90;;;;;;4972811;28;20202;-62
2022/06/26 11:23:59;;;;;;;12.80;1.42;;;16.00;99.90;;;;;;4971760;28;20176;-62
2022/06/26 11:26:25;;;;;;;8.05;1.63;;;16.00;99.90;;;;;;4972582;28;20172;-62
2022/06/26 11:29:02;;;;;;;8.38;1.40;;;16.20;99.90;;;;;;4972198;28;20194;-63
2022/06/26 11:31:30;;;;;;;9.73;1.95;;;16.60;99.90;;;;;;4972445;28;20194;-63
2022/06/26 11:34:17;;;;;;;10.20;1.55;;;16.60;99.90;;;;;;4972541;28;20196;-62
2022/06/26 11:36:52;;;;;;;10.93;1.73;;;16.80;99.90;;;;;;4972559;28;20225;-62
2022/06/26 11:39:18;;;;;;;8.02;1.50;;;17.20;99.90;;;;;;4972530;28;20210;-62
2022/06/26 11:41:45;;;;;;;8.32;1.83;;;17.30;99.90;;;;;;4972446;28;20179;-63
2022/06/26 11:44:11;;;;;;;10.50;1.77;;;17.90;99.90;;;;;;4972280;28;20211;-63
2022/06/26 11:46:38;;;;;;;10.70;2.08;;;18.20;99.90;;;;;;4972376;28;20203;-63
2022/06/26 11:49:03;;;;;;;11.13;2.17;;;18.90;99.90;;;;;;4972111;28;20714;-63
2022/06/26 11:51:32;;;;;;;13.30;1.85;;;19.30;99.90;;;;;;4971614;28;20271;-63
2022/06/26 11:53:58;;;;;;;12.85;2.13;;;19.30;99.90;;;;;;4972586;28;20208;-63
2022/06/26 11:56:29;;;;;;;9.95;1.77;;;18.80;99.90;;;;;;4972310;28;20662;-63
2022/06/26 11:58:56;;;;;;;5.57;0.95;;;17.40;99.90;;;;;;4970267;28;20203;-62
2022/06/26 12:01:31;;;;;;;9.57;1.95;;;16.80;99.90;;;;;;4961768;28;20663;-63
2022/06/26 12:03:56;;;;;;;12.57;2.13;;;16.70;99.90;;;;;;4952269;28;20190;-63
2022/06/26 12:06:41;;;;;;;14.20;2.15;;;16.30;99.90;;;;;;4968976;28;20215;-62
2022/06/26 12:09:28;;;;;;;16.27;2.20;;;16.50;99.90;;;;;;4971347;28;20203;-62
2022/06/26 12:11:55;;;;;;;13.10;2.55;;;16.40;99.90;;;;;;4968950;28;20670;-63
2022/06/26 12:14:25;;;;;;;14.88;2.33;;;16.40;99.90;;;;;;4971499;28;20178;-62
2022/06/26 12:16:52;;;;;;;12.73;2.28;;;16.60;99.90;;;;;;4971813;28;20172;-62
2022/06/26 12:19:19;;;;;;;13.90;1.83;;;17.50;99.90;;;;;;4971715;28;20242;-62
2022/06/26 12:21:51;;;;;;;11.23;1.40;;;17.30;99.90;;;;;;4971301;28;20218;-63
2022/06/26 12:24:18;;;;;;;10.52;1.90;;;17.40;99.90;;;;;;4971672;28;20188;-62
2022/06/26 12:26:45;;;;;;;10.90;2.10;;;17.30;99.90;;;;;;4971623;28;20179;-63
2022/06/26 12:29:16;;;;;;;10.25;1.90;;;18.90;99.90;;;;;;4971937;28;20693;-63
2022/06/26 12:31:42;;;;;;;9.32;2.08;;;20.00;99.90;;;;;;4970343;28;20164;-63
2022/06/26 12:34:08;;;;;;;11.88;1.80;;;19.80;99.90;;;;;;4972645;28;20251;-63
2022/06/26 12:36:37;;;;;;;14.02;1.70;;;19.70;99.90;;;;;;4957922;28;20187;-64
2022/06/26 12:39:11;;;;;;;9.65;2.00;;;20.10;99.90;;;;;;4975728;28;20203;-63
2022/06/26 12:41:37;;;;;;;17.42;2.45;;;20.70;99.90;;;;;;4975972;28;20274;-63
2022/06/26 12:44:03;;;;;;;11.88;2.10;;;21.00;99.90;;;;;;4975373;28;20531;-62
2022/06/26 12:46:31;;;;;;;9.35;1.83;;;20.80;99.90;;;;;;4975619;28;20643;-62
2022/06/26 12:48:58;;;;;;;13.52;2.30;;;20.90;99.90;;;;;;4975246;28;20274;-62
2022/06/26 12:51:24;;;;;;;17.38;2.22;;;20.80;99.90;;;;;;4970526;28;20169;-63
2022/06/26 12:53:50;;;;;;;11.55;2.22;;;20.50;99.90;;;;;;4975106;28;20550;-62